createdAt,value
2019-05-06T00:01:24.617Z,4.20
2019-05-06T00:03:54.281Z,4.20
2019-05-06T00:06:23.818Z,4.10
2019-05-06T00:08:54.592Z,4.10
2019-05-06T00:11:24.021Z,4.10
2019-05-06T00:13:54.316Z,4.10
2019-05-06T00:16:23.950Z,4.10
2019-05-06T00:18:54.078Z,4.00
2019-05-06T00:21:24.472Z,4.10
2019-05-06T00:23:54.676Z,4.10
2019-05-06T00:26:56.737Z,3.90
2019-05-06T00:29:26.110Z,4.00
2019-05-06T00:31:55.337Z,4.00
2019-05-06T00:34:24.690Z,4.00
2019-05-06T00:36:54.461Z,4.00
2019-05-06T00:39:40.707Z,3.90
2019-05-06T00:42:37.965Z,3.90
2019-05-06T00:45:08.553Z,3.90
2019-05-06T00:47:37.656Z,3.90
2019-05-06T00:50:07.216Z,4.00
2019-05-06T00:52:37.132Z,3.90
2019-05-06T00:55:06.812Z,3.80
2019-05-06T00:57:45.087Z,3.90
2019-05-06T01:00:19.724Z,3.70
2019-05-06T01:02:48.943Z,3.70
2019-05-06T01:05:18.475Z,3.70
2019-05-06T01:07:47.602Z,3.60
2019-05-06T01:10:17.420Z,3.70
2019-05-06T01:12:56.249Z,3.70
2019-05-06T01:15:26.637Z,3.70
2019-05-06T01:17:55.756Z,3.50
2019-05-06T01:20:24.905Z,3.50
2019-05-06T01:22:54.459Z,3.50
2019-05-06T01:25:23.834Z,3.50
2019-05-06T01:27:53.994Z,3.60
2019-05-06T01:30:24.348Z,3.60
2019-05-06T01:32:54.350Z,3.60
2019-05-06T01:35:24.491Z,3.60
2019-05-06T01:38:14.653Z,3.70
2019-05-06T01:41:03.971Z,3.90
2019-05-06T01:43:34.739Z,3.80
2019-05-06T01:46:04.690Z,3.70
2019-05-06T01:48:49.533Z,3.80
2019-05-06T01:51:20.912Z,3.80
2019-05-06T01:53:50.433Z,3.80
2019-05-06T01:56:19.548Z,3.80
2019-05-06T01:58:48.672Z,3.90
2019-05-06T02:01:17.931Z,3.70
2019-05-06T02:03:47.047Z,3.70
2019-05-06T02:06:16.156Z,3.80
2019-05-06T02:08:45.349Z,3.70
2019-05-06T02:11:15.004Z,3.60
2019-05-06T02:13:45.685Z,3.70
2019-05-06T02:16:14.925Z,3.80
2019-05-06T02:18:45.019Z,3.80
2019-05-06T02:21:20.093Z,3.80
2019-05-06T02:23:54.296Z,3.70
2019-05-06T02:26:23.886Z,3.70
2019-05-06T02:28:55.261Z,3.70
2019-05-06T02:31:45.687Z,3.60
2019-05-06T02:34:25.398Z,3.50
2019-05-06T02:36:59.901Z,3.50
2019-05-06T02:39:29.132Z,3.40
2019-05-06T02:41:58.364Z,3.40
2019-05-06T02:44:27.495Z,3.50
2019-05-06T02:47:05.340Z,3.60
2019-05-06T02:49:53.407Z,3.60
2019-05-06T02:52:22.858Z,3.50
2019-05-06T02:54:53.698Z,3.50
2019-05-06T02:57:23.762Z,3.50
2019-05-06T02:59:55.246Z,3.60
2019-05-06T03:02:39.007Z,3.70
2019-05-06T03:04:55.101Z,3.60
2019-05-06T03:07:24.255Z,3.50
2019-05-06T03:09:53.518Z,3.60
2019-05-06T03:12:23.061Z,3.70
2019-05-06T03:14:53.371Z,3.70
2019-05-06T03:17:23.663Z,3.80
2019-05-06T03:19:54.756Z,3.70
2019-05-06T03:22:37.137Z,3.80
2019-05-06T03:25:28.041Z,3.70
2019-05-06T03:27:57.272Z,3.80
2019-05-06T03:30:27.612Z,3.80
2019-05-06T03:33:30.919Z,3.90
2019-05-06T03:35:48.367Z,3.90
2019-05-06T03:37:58.459Z,3.90
2019-05-06T03:40:27.598Z,4.00
2019-05-06T03:42:56.720Z,4.00
2019-05-06T03:45:44.907Z,4.00
2019-05-06T03:48:23.952Z,4.00
2019-05-06T03:50:55.479Z,3.90
2019-05-06T03:53:23.961Z,3.90
2019-05-06T03:55:54.041Z,3.90
2019-05-06T03:58:26.793Z,3.80
2019-05-06T04:00:57.158Z,3.80
2019-05-06T04:03:42.520Z,3.90
2019-05-06T04:05:57.145Z,4.00
2019-05-06T04:08:26.476Z,3.90
2019-05-06T04:10:55.652Z,3.90
2019-05-06T04:13:24.773Z,3.90
2019-05-06T04:16:13.814Z,3.90
2019-05-06T04:18:47.436Z,4.00
2019-05-06T04:21:29.435Z,3.90
2019-05-06T04:24:24.296Z,3.90
2019-05-06T04:27:07.588Z,3.80
2019-05-06T04:29:36.823Z,3.70
2019-05-06T04:32:06.016Z,3.80
2019-05-06T04:34:35.138Z,3.90
2019-05-06T04:37:04.303Z,3.90
2019-05-06T04:39:33.576Z,3.90
2019-05-06T04:42:03.892Z,4.00
2019-05-06T04:44:33.253Z,4.10
2019-05-06T04:47:05.379Z,4.10
2019-05-06T04:49:34.551Z,4.10
2019-05-06T04:52:04.706Z,4.10
2019-05-06T04:54:34.083Z,4.00
2019-05-06T04:57:05.107Z,4.00
2019-05-06T04:59:35.138Z,4.10
2019-05-06T05:02:04.348Z,4.20
2019-05-06T05:04:36.888Z,4.30
2019-05-06T05:07:04.991Z,4.30
2019-05-06T05:09:34.174Z,4.30
2019-05-06T05:12:13.189Z,4.30
2019-05-06T05:15:06.867Z,4.40
2019-05-06T05:17:46.350Z,4.40
2019-05-06T05:20:15.481Z,4.50
2019-05-06T05:22:44.800Z,4.50
2019-05-06T05:25:13.951Z,4.50
2019-05-06T05:27:43.149Z,4.50
2019-05-06T05:30:12.725Z,4.50
2019-05-06T05:32:42.831Z,4.50
2019-05-06T05:35:12.689Z,4.50
2019-05-06T05:37:42.154Z,4.70
2019-05-06T05:40:12.937Z,4.60
2019-05-06T05:42:55.517Z,4.70
2019-05-06T05:45:24.797Z,4.70
2019-05-06T05:47:55.991Z,4.60
2019-05-06T05:50:32.607Z,4.60
2019-05-06T05:53:02.554Z,4.70
2019-05-06T05:55:33.049Z,4.70
2019-05-06T05:58:03.195Z,4.80
2019-05-06T06:00:34.299Z,4.90
2019-05-06T06:03:06.805Z,4.90
2019-05-06T06:05:34.556Z,4.80
2019-05-06T06:08:03.786Z,4.80
2019-05-06T06:10:43.078Z,4.80
2019-05-06T06:13:12.865Z,4.70
2019-05-06T06:16:00.001Z,4.50
2019-05-06T06:18:48.608Z,4.70
2019-05-06T06:21:32.272Z,4.70
2019-05-06T06:24:06.707Z,4.60
2019-05-06T06:26:35.933Z,4.80
2019-05-06T06:29:05.129Z,5.00
2019-05-06T06:31:46.497Z,5.20
2019-05-06T06:34:23.784Z,5.20
2019-05-06T06:37:17.913Z,5.20
2019-05-06T06:39:48.014Z,5.30
2019-05-06T06:42:17.143Z,5.30
2019-05-06T06:44:47.764Z,5.20
2019-05-06T06:47:17.581Z,5.40
2019-05-06T06:49:46.712Z,5.50
2019-05-06T06:52:15.876Z,5.60
2019-05-06T06:54:44.997Z,5.70
2019-05-06T06:57:32.298Z,5.70
2019-05-06T07:00:15.640Z,5.80
2019-05-06T07:02:52.540Z,5.90
2019-05-06T07:05:36.379Z,6.00
2019-05-06T07:08:05.656Z,6.00
2019-05-06T07:10:53.113Z,6.00
2019-05-06T07:13:23.212Z,6.10
2019-05-06T07:15:52.666Z,6.30
2019-05-06T07:18:24.326Z,6.50
2019-05-06T07:21:13.875Z,6.40
2019-05-06T07:23:42.541Z,6.50
2019-05-06T07:26:13.361Z,6.60
2019-05-06T07:28:43.693Z,6.40
2019-05-06T07:31:21.962Z,6.50
2019-05-06T07:33:43.980Z,6.70
2019-05-06T07:36:13.239Z,6.70
2019-05-06T07:38:52.105Z,6.60
2019-05-06T07:41:26.775Z,6.70
2019-05-06T07:44:14.959Z,6.80
2019-05-06T07:46:52.536Z,7.10
2019-05-06T07:49:23.529Z,7.10
2019-05-06T07:51:53.125Z,7.20
2019-05-06T07:54:22.556Z,7.30
2019-05-06T07:56:52.607Z,7.50
2019-05-06T07:59:22.638Z,7.60
2019-05-06T08:01:54.100Z,7.60
2019-05-06T08:04:23.135Z,7.70
2019-05-06T08:06:52.404Z,8.00
2019-05-06T08:09:22.174Z,8.40
2019-05-06T08:11:53.019Z,8.60
2019-05-06T08:14:24.140Z,8.80
2019-05-06T08:17:02.092Z,8.80
2019-05-06T08:19:33.385Z,8.60
2019-05-06T08:22:04.056Z,8.80
2019-05-06T08:24:33.308Z,8.90
2019-05-06T08:27:02.992Z,9.20
2019-05-06T08:29:33.023Z,9.50
2019-05-06T08:32:02.910Z,9.60
2019-05-06T08:34:34.290Z,9.60
2019-05-06T08:37:22.749Z,9.90
2019-05-06T08:39:52.711Z,9.80
2019-05-06T08:42:22.484Z,9.90
2019-05-06T08:44:53.083Z,10.00
2019-05-06T08:47:22.632Z,10.20
2019-05-06T08:50:22.902Z,10.20
2019-05-06T08:53:26.382Z,10.30
2019-05-06T08:55:55.980Z,10.50
2019-05-06T08:58:44.176Z,10.50
2019-05-06T09:01:17.468Z,10.50
2019-05-06T09:03:46.706Z,10.50
2019-05-06T09:06:26.888Z,10.50
2019-05-06T09:08:47.070Z,10.50
2019-05-06T09:11:16.276Z,10.90
2019-05-06T09:13:45.427Z,11.00
2019-05-06T09:16:14.680Z,11.20
2019-05-06T09:18:44.222Z,11.10
2019-05-06T09:21:13.461Z,11.10
2019-05-06T09:24:02.259Z,11.10
2019-05-06T09:26:39.281Z,11.10
2019-05-06T09:29:23.133Z,11.10
2019-05-06T09:31:54.209Z,11.00
2019-05-06T09:34:29.552Z,10.80
2019-05-06T09:37:18.644Z,10.70
2019-05-06T09:39:48.033Z,10.80
2019-05-06T09:42:17.825Z,10.60
2019-05-06T09:44:50.413Z,10.50
2019-05-06T09:47:56.047Z,10.40
2019-05-06T09:50:45.532Z,10.20
2019-05-06T09:53:16.413Z,10.20
2019-05-06T09:56:16.894Z,10.10
2019-05-06T09:58:46.131Z,10.20
2019-05-06T10:01:16.531Z,10.30
2019-05-06T10:03:45.700Z,10.40
2019-05-06T10:06:15.013Z,10.40
2019-05-06T10:08:44.248Z,10.40
2019-05-06T10:11:13.396Z,10.50
2019-05-06T10:13:43.129Z,10.60
2019-05-06T10:16:12.970Z,10.90
2019-05-06T10:18:42.369Z,11.00
2019-05-06T10:21:12.527Z,11.10
2019-05-06T10:23:42.354Z,11.20
2019-05-06T10:26:13.010Z,11.30
2019-05-06T10:28:57.826Z,11.20
2019-05-06T10:31:28.892Z,11.20
2019-05-06T10:34:14.022Z,11.40
2019-05-06T10:36:53.423Z,11.60
2019-05-06T10:39:25.566Z,11.80
2019-05-06T10:42:13.158Z,12.10
2019-05-06T10:44:55.281Z,12.10
2019-05-06T10:47:24.604Z,12.20
2019-05-06T10:49:53.833Z,12.70
2019-05-06T10:52:27.513Z,13.10
2019-05-06T10:54:56.728Z,13.30
2019-05-06T10:57:35.977Z,13.70
2019-05-06T11:00:05.964Z,13.70
2019-05-06T11:02:52.415Z,14.10
2019-05-06T11:05:21.740Z,14.40
2019-05-06T11:07:52.154Z,14.80
2019-05-06T11:10:27.674Z,15.10
2019-05-06T11:12:52.438Z,15.20
2019-05-06T11:15:23.276Z,15.40
2019-05-06T11:17:52.720Z,15.20
2019-05-06T11:20:24.105Z,15.10
2019-05-06T11:22:52.952Z,15.40
2019-05-06T11:25:23.007Z,15.70
2019-05-06T11:27:52.823Z,15.30
2019-05-06T11:30:42.542Z,15.60
2019-05-06T11:33:30.015Z,15.50
2019-05-06T11:36:06.126Z,15.60
2019-05-06T11:38:35.364Z,15.60
2019-05-06T11:41:04.555Z,15.70
2019-05-06T11:43:33.725Z,15.30
2019-05-06T11:46:04.253Z,14.80
2019-05-06T11:48:33.528Z,14.60
2019-05-06T11:51:04.393Z,14.00
2019-05-06T11:53:33.719Z,13.80
2019-05-06T11:56:02.888Z,13.50
2019-05-06T11:58:48.673Z,13.30
2019-05-06T12:01:22.023Z,13.20
2019-05-06T12:03:52.173Z,12.90
2019-05-06T12:06:22.739Z,12.50
2019-05-06T12:08:52.560Z,12.20
2019-05-06T12:11:23.630Z,12.10
2019-05-06T12:13:53.342Z,11.90
2019-05-06T12:16:26.106Z,11.70
2019-05-06T12:18:53.560Z,11.40
2019-05-06T12:21:23.305Z,11.40
2019-05-06T12:23:53.791Z,11.20
2019-05-06T12:26:23.243Z,11.20
2019-05-06T12:28:53.140Z,11.20
2019-05-06T12:31:23.360Z,11.10
2019-05-06T12:33:53.511Z,11.00
2019-05-06T12:36:25.857Z,10.90
2019-05-06T12:39:15.846Z,11.00
2019-05-06T12:42:15.652Z,10.90
2019-05-06T12:45:06.958Z,11.00
2019-05-06T12:47:57.256Z,11.00
2019-05-06T12:50:26.536Z,11.00
2019-05-06T12:52:57.734Z,11.10
2019-05-06T12:55:26.661Z,11.20
2019-05-06T12:57:55.928Z,11.20
2019-05-06T13:00:27.308Z,11.30
2019-05-06T13:02:56.409Z,11.30
2019-05-06T13:05:25.593Z,11.40
2019-05-06T13:07:54.771Z,11.40
2019-05-06T13:10:23.928Z,11.50
2019-05-06T13:13:05.568Z,11.60
2019-05-06T13:15:35.509Z,11.70
2019-05-06T13:18:07.261Z,11.70
2019-05-06T13:20:36.894Z,11.80
2019-05-06T13:23:20.960Z,11.80
2019-05-06T13:25:45.614Z,11.80
2019-05-06T13:28:16.665Z,11.90
2019-05-06T13:30:45.977Z,12.10
2019-05-06T13:33:29.222Z,12.20
2019-05-06T13:35:58.496Z,12.30
2019-05-06T13:38:27.860Z,12.50
2019-05-06T13:40:57.728Z,12.90
2019-05-06T13:43:35.395Z,13.00
2019-05-06T13:46:07.908Z,12.90
2019-05-06T13:48:42.695Z,13.10
2019-05-06T13:51:14.745Z,13.20
2019-05-06T13:53:46.209Z,13.20
2019-05-06T13:56:14.906Z,13.00
2019-05-06T13:58:44.044Z,12.90
2019-05-06T14:01:16.232Z,12.80
2019-05-06T14:03:45.565Z,12.70
2019-05-06T14:06:14.783Z,12.70
2019-05-06T14:08:43.932Z,12.60
2019-05-06T14:11:13.259Z,12.60
2019-05-06T14:13:42.594Z,12.60
2019-05-06T14:16:13.013Z,12.60
2019-05-06T14:18:42.851Z,12.50
2019-05-06T14:21:12.504Z,12.40
2019-05-06T14:23:41.972Z,12.40
2019-05-06T14:26:19.168Z,12.30
2019-05-06T14:28:58.252Z,12.30
2019-05-06T14:31:32.536Z,12.10
2019-05-06T14:34:00.884Z,12.00
2019-05-06T14:36:32.117Z,12.10
2019-05-06T14:39:04.684Z,12.10
2019-05-06T14:41:32.689Z,12.00
2019-05-06T14:44:02.712Z,11.90
2019-05-06T14:46:57.397Z,11.90
2019-05-06T14:49:26.616Z,12.00
2019-05-06T14:51:55.723Z,12.10
2019-05-06T14:54:26.463Z,12.10
2019-05-06T14:57:04.357Z,12.10
2019-05-06T14:59:33.589Z,12.20
2019-05-06T15:02:02.805Z,12.20
2019-05-06T15:04:32.662Z,12.30
2019-05-06T15:07:02.283Z,12.40
2019-05-06T15:09:32.936Z,12.40
2019-05-06T15:12:02.532Z,12.40
2019-05-06T15:14:33.119Z,12.40
2019-05-06T15:17:02.451Z,12.40
2019-05-06T15:19:31.707Z,12.20
2019-05-06T15:22:02.281Z,12.30
2019-05-06T15:24:31.699Z,12.30
2019-05-06T15:27:02.742Z,12.20
2019-05-06T15:29:31.771Z,12.20
2019-05-06T15:32:08.783Z,12.20
2019-05-06T15:34:43.851Z,12.20
2019-05-06T15:37:27.295Z,12.20
2019-05-06T15:39:56.409Z,12.20
2019-05-06T15:42:25.575Z,12.20
2019-05-06T15:44:54.748Z,12.20
2019-05-06T15:47:23.987Z,12.20
2019-05-06T15:49:53.148Z,12.20
2019-05-06T15:52:23.473Z,12.20
2019-05-06T15:54:52.941Z,12.10
2019-05-06T15:57:22.914Z,12.10
2019-05-06T15:59:53.134Z,12.00
2019-05-06T16:02:23.211Z,12.00
2019-05-06T16:04:52.715Z,12.00
2019-05-06T16:07:25.673Z,12.00
2019-05-06T16:09:55.285Z,12.00
2019-05-06T16:12:23.952Z,12.00
2019-05-06T16:14:53.262Z,12.00
2019-05-06T16:17:23.836Z,11.90
2019-05-06T16:19:53.266Z,11.90
2019-05-06T16:22:22.790Z,11.90
2019-05-06T16:25:02.517Z,11.80
2019-05-06T16:27:30.942Z,11.70
2019-05-06T16:30:03.166Z,11.70
2019-05-06T16:32:33.243Z,11.80
2019-05-06T16:35:01.875Z,11.80
2019-05-06T16:37:32.977Z,11.80
2019-05-06T16:40:02.820Z,11.90
2019-05-06T16:42:32.330Z,11.90
2019-05-06T16:45:06.800Z,12.00
2019-05-06T16:47:39.346Z,11.90
2019-05-06T16:50:13.451Z,12.00
2019-05-06T16:52:45.524Z,12.00
2019-05-06T16:55:17.956Z,12.00
2019-05-06T16:57:53.284Z,11.90
2019-05-06T17:00:24.604Z,11.80
2019-05-06T17:03:14.407Z,11.90
2019-05-06T17:06:04.697Z,11.90
2019-05-06T17:08:36.524Z,11.90
2019-05-06T17:11:05.291Z,11.80
2019-05-06T17:13:37.529Z,11.80
2019-05-06T17:16:05.458Z,11.70
2019-05-06T17:18:34.675Z,11.70
2019-05-06T17:21:03.966Z,11.60
2019-05-06T17:23:33.361Z,11.70
2019-05-06T17:26:04.002Z,11.70
2019-05-06T17:28:39.189Z,11.70
2019-05-06T17:31:22.306Z,11.70
2019-05-06T17:33:51.928Z,11.70
2019-05-06T17:36:22.994Z,11.60
2019-05-06T17:38:52.647Z,11.60
2019-05-06T17:41:23.731Z,11.50
2019-05-06T17:43:53.080Z,11.50
2019-05-06T17:46:24.403Z,11.50
2019-05-06T17:49:05.384Z,11.50
2019-05-06T17:51:46.882Z,11.40
2019-05-06T17:54:16.048Z,11.40
2019-05-06T17:56:45.229Z,11.40
2019-05-06T17:59:14.488Z,11.40
2019-05-06T18:01:47.130Z,11.30
2019-05-06T18:04:16.354Z,11.40
2019-05-06T18:06:45.570Z,11.30
2019-05-06T18:09:14.726Z,11.30
2019-05-06T18:11:57.575Z,11.30
2019-05-06T18:14:16.878Z,11.30
2019-05-06T18:16:46.073Z,11.30
2019-05-06T18:19:15.317Z,11.30
2019-05-06T18:21:44.537Z,11.20
2019-05-06T18:24:13.672Z,11.20
2019-05-06T18:26:42.941Z,11.20
2019-05-06T18:29:13.304Z,11.10
2019-05-06T18:31:42.927Z,11.10
2019-05-06T18:34:12.935Z,11.10
2019-05-06T18:36:43.081Z,11.10
2019-05-06T18:39:12.719Z,11.00
2019-05-06T18:41:42.183Z,11.00
2019-05-06T18:44:11.990Z,11.00
2019-05-06T18:46:42.037Z,11.00
2019-05-06T18:49:13.059Z,11.00
2019-05-06T18:51:42.810Z,11.00
2019-05-06T18:54:12.490Z,10.90
2019-05-06T18:56:43.035Z,11.00
2019-05-06T18:59:12.356Z,10.90
2019-05-06T19:01:43.490Z,10.90
2019-05-06T19:04:22.633Z,10.90
2019-05-06T19:07:08.759Z,10.90
2019-05-06T19:09:42.367Z,10.80
2019-05-06T19:12:12.815Z,10.90
2019-05-06T19:14:44.024Z,10.80
2019-05-06T19:17:13.301Z,10.80
2019-05-06T19:19:42.798Z,10.80
2019-05-06T19:22:14.067Z,10.80
2019-05-06T19:24:44.796Z,10.60
2019-05-06T19:27:14.165Z,10.50
2019-05-06T19:29:43.444Z,10.60
2019-05-06T19:32:12.845Z,10.60
2019-05-06T19:34:42.379Z,10.60
2019-05-06T19:37:11.815Z,10.60
2019-05-06T19:39:43.117Z,10.70
2019-05-06T19:42:13.075Z,10.50
2019-05-06T19:44:43.156Z,10.40
2019-05-06T19:47:13.374Z,10.30
2019-05-06T19:49:42.592Z,10.40
2019-05-06T19:52:11.848Z,10.40
2019-05-06T19:54:42.484Z,10.40
2019-05-06T19:57:12.135Z,10.30
2019-05-06T19:59:42.895Z,10.20
2019-05-06T20:02:12.915Z,10.20
2019-05-06T20:04:44.374Z,10.10
2019-05-06T20:07:27.013Z,10.20
2019-05-06T20:10:13.743Z,10.30
2019-05-06T20:12:58.357Z,10.00
2019-05-06T20:15:37.703Z,9.90
2019-05-06T20:18:08.353Z,10.00
2019-05-06T20:20:37.806Z,10.00
2019-05-06T20:23:07.139Z,9.90
2019-05-06T20:25:37.232Z,9.90
2019-05-06T20:28:06.737Z,9.90
2019-05-06T20:30:35.983Z,9.80
2019-05-06T20:33:05.297Z,9.80
2019-05-06T20:35:34.477Z,9.70
2019-05-06T20:38:03.920Z,9.70
2019-05-06T20:40:33.098Z,9.70
2019-05-06T20:43:16.485Z,9.70
2019-05-06T20:45:35.620Z,9.70
2019-05-06T20:48:05.049Z,9.70
2019-05-06T20:50:34.196Z,9.80
2019-05-06T20:53:03.353Z,9.50
2019-05-06T20:55:35.545Z,9.50
2019-05-06T20:58:04.726Z,9.50
2019-05-06T21:00:33.971Z,9.40
2019-05-06T21:03:03.408Z,9.50
2019-05-06T21:05:32.552Z,9.40
2019-05-06T21:08:02.316Z,9.40
2019-05-06T21:10:32.974Z,9.30
2019-05-06T21:13:02.546Z,9.30
2019-05-06T21:15:32.561Z,9.30
2019-05-06T21:18:04.210Z,9.30
2019-05-06T21:20:33.133Z,9.30
2019-05-06T21:23:02.549Z,9.30
2019-05-06T21:25:33.295Z,9.40
2019-05-06T21:28:03.027Z,9.40
2019-05-06T21:30:32.514Z,9.40
2019-05-06T21:33:01.899Z,9.30
2019-05-06T21:35:33.141Z,9.30
2019-05-06T21:38:02.605Z,9.20
2019-05-06T21:40:32.403Z,9.10
2019-05-06T21:43:02.244Z,9.10
2019-05-06T21:45:33.067Z,9.10
2019-05-06T21:48:02.888Z,9.10
2019-05-06T21:50:33.045Z,9.20
2019-05-06T21:53:03.159Z,9.20
2019-05-06T21:55:32.938Z,9.10
2019-05-06T21:58:02.449Z,9.00
2019-05-06T22:00:43.363Z,8.90
2019-05-06T22:03:13.459Z,9.00
2019-05-06T22:05:42.839Z,9.00
2019-05-06T22:08:12.833Z,9.00
2019-05-06T22:10:42.397Z,9.00
2019-05-06T22:13:14.282Z,9.00
2019-05-06T22:15:42.676Z,9.00
2019-05-06T22:18:12.649Z,9.00
2019-05-06T22:21:00.044Z,8.90
2019-05-06T22:23:49.447Z,8.90
2019-05-06T22:26:18.603Z,8.90
2019-05-06T22:28:47.784Z,8.80
2019-05-06T22:31:16.975Z,8.80
2019-05-06T22:33:46.212Z,8.80
2019-05-06T22:36:15.493Z,8.70
2019-05-06T22:38:44.773Z,8.70
2019-05-06T22:41:14.327Z,8.80
2019-05-06T22:43:43.478Z,8.80
2019-05-06T22:46:12.644Z,8.80
2019-05-06T22:48:43.386Z,8.80
2019-05-06T22:51:12.650Z,8.80
2019-05-06T22:53:42.497Z,8.70
2019-05-06T22:56:14.352Z,8.80
2019-05-06T22:58:43.753Z,8.80
2019-05-06T23:01:33.961Z,8.70
2019-05-06T23:04:03.157Z,8.70
2019-05-06T23:06:32.929Z,8.60
2019-05-06T23:09:02.648Z,8.60
2019-05-06T23:11:32.857Z,8.50
2019-05-06T23:14:02.851Z,8.60
2019-05-06T23:16:33.096Z,8.60
2019-05-06T23:19:03.060Z,8.50
2019-05-06T23:21:33.695Z,8.40
2019-05-06T23:24:03.212Z,8.50
2019-05-06T23:26:32.351Z,8.50
2019-05-06T23:29:02.414Z,8.60
2019-05-06T23:31:33.235Z,8.50
2019-05-06T23:34:04.964Z,8.50
2019-05-06T23:37:23.256Z,8.60
2019-05-06T23:40:39.395Z,8.50
2019-05-06T23:43:43.907Z,8.40
2019-05-06T23:46:49.208Z,8.30
2019-05-06T23:49:53.430Z,8.40
2019-05-06T23:52:57.700Z,8.30
2019-05-06T23:56:02.949Z,8.20
2019-05-06T23:58:32.430Z,8.20
